Hlavní strana
METAR-TAF:

METAR-TAF

Letiště :

Searcy Municipal Airport

Searcy, Arkansas, Spojené státy americké

zeměpisná šířka: 35-12-43N, zeměpisná délka: 091-44-14W, výška: 81 m

Aktuální stav počasí

Zpráva byla vytvořena před 1 hodinou a 7 minutami, v 10:56 UTC
Jihozápadní vítr 4 kt
Teplota 3°C
Vlhkost vzduchu 100%
Tlak 1012 hPa
Viditelnost: 12.9 km
Oblačno až skoro zataženo ve výšce 1200 ft
Zataženo ve výšce 4500 ft

METAR: KSRC 241056Z AUTO 22004KT 8SM BKN012 OVC045 03/03 A2989 RMK AO2 SLP127 T00330033

Čas: 06:03 (12:03 UTC)


TAF: chybějící

Stav a předpovědi počasí z více než 4 000 letišť (zprávy METAR a TAF).

Červené a žluté tečky na mapě představují dostupné meteorologické stanice.

Když kurzor umístíte na tečku, zobrazí se název stanice.

Pak kliknutím zobrazíte stav a předpověď počasí.

Chcete-li změnit mapu, kliknutím na zelené tlačítko se znaménkem +mapu přiblížíte, kliknutím na zelené tlačítko se znaménkem – mapu oddálíte a kliknutím na zelené šipky přejdete na sousední mapy.


METAR-TAF: